Temp: 14.2°C   Baro: 1018.6mb
  Wind: 6.9mph   Dir: NNW (342°)
  Rain: 0.0mm (0.0mm/hr)
  Solar: 258W/m2  Hum: 72%
 
Bath Spa Weather Station Historical Data
Daily Summary for July 18, 2019 Units:  Metric    English   Both
Daily Weekly Monthly Yearly Custom
  High: Low: Average:
Temperature: 20.6 °C 13.9 °C 16.8 °C
Dew Point: 14.8 °C 10.4 °C 12.7 °C
Humidity: 94.2% 56.8% 77%
Wind Speed: 20.9km/h 0km/h 7.4km/h
Wind Gust: 33.8km/h - -
Wind- - West
Pressure: 1012.8 hPa 1008.7 hPa -
Precipitation: 3.05 mm    
Historical Graphs
 
 
Tabular Data for July 18, 2019
Time Temperature Dew Point Pressure Wind Wind Speed Wind Gust Humidity Rainfall Rate (Hourly) solar
00:04 15.7 °C 12.3 °C 1010.7 hPa Calm   1.6 km/h 80% 0 mm 0 W/m2
00:09 15.7 °C 12.3 °C 1010.7 hPa WNW 0.2 km/h 1.6 km/h 79.9% 0 mm 0 W/m2
00:14 15.7 °C 12.3 °C 1010.7 hPa Calm   1.6 km/h 80% 0 mm 0 W/m2
00:19 15.7 °C 12.3 °C 1010.7 hPa Calm     80% 0 mm 0 W/m2
00:24 15.7 °C 12.3 °C 1010.7 hPa Calm     80% 0 mm 0 W/m2
00:29 15.8 °C 12.3 °C 1010.7 hPa WNW 0.2 km/h 1.6 km/h 80% 0 mm 0 W/m2
00:34 15.8 °C 12.3 °C 1010.7 hPa WNW 0.5 km/h 4.8 km/h 80% 0 mm 0 W/m2
00:39 15.8 °C 12.4 °C 1010.7 hPa WNW 0.8 km/h 4.8 km/h 80% 0 mm 0 W/m2
00:44 15.8 °C 12.4 °C 1010.7 hPa WNW 0.2 km/h 4.8 km/h 80% 0 mm 0 W/m2
00:49 15.8 °C 12.4 °C 1010.4 hPa Calm   1.6 km/h 80% 0 mm 0 W/m2
00:54 15.9 °C 12.5 °C 1010.4 hPa WNW 0.6 km/h 6.4 km/h 80% 0 mm 0 W/m2
00:59 15.9 °C 12.6 °C 1010.7 hPa West 1.4 km/h 6.4 km/h 80.1% 0 mm 0 W/m2
01:04 16 °C 12.6 °C 1010.4 hPa West 1.4 km/h 6.4 km/h 80% 0 mm 0 W/m2
01:09 16.1 °C 12.6 °C 1010.4 hPa WSW 1.1 km/h 6.4 km/h 80% 0 mm 0 W/m2
01:14 16.1 °C 12.6 °C 1010.4 hPa WSW 2.7 km/h 6.4 km/h 80% 0 mm 0 W/m2
01:19 16.2 °C 12.7 °C 1010.4 hPa WSW 2.6 km/h 8 km/h 80% 0 mm 0 W/m2
01:24 16.2 °C 12.7 °C 1010.4 hPa SW 1.9 km/h 8 km/h 79.4% 0 mm 0 W/m2
01:29 16.2 °C 12.6 °C 1010.4 hPa SW 2.7 km/h 9.7 km/h 79% 0 mm 0 W/m2
01:34 16.2 °C 12.7 °C 1010.4 hPa SW 2.1 km/h 8 km/h 79% 0 mm 0 W/m2
01:39 16.2 °C 12.7 °C 1010.4 hPa WSW 3.4 km/h 8 km/h 79% 0.25 mm 0 W/m2
01:44 16.1 °C 12.7 °C 1010.4 hPa West 4.8 km/h 11.3 km/h 80.2% 0.25 mm 0 W/m2
01:49 15.8 °C 12.7 °C 1010.4 hPa West 1.4 km/h 4.8 km/h 81.6% 0.25 mm 0 W/m2
01:54 15.7 °C 12.7 °C 1010 hPa WSW 2.6 km/h 8 km/h 82.9% 0.51 mm 0 W/m2
01:59 15.4 °C 12.8 °C 1010 hPa SW 2.3 km/h 8 km/h 84.2% 0.51 mm 0 W/m2
02:04 15.3 °C 12.9 °C 1010 hPa SW 0.2 km/h 6.4 km/h 85.4% 0.76 mm 0 W/m2
02:09 15.3 °C 13 °C 1010 hPa SW 1.9 km/h 8 km/h 86% 0.76 mm 0 W/m2
02:14 15.3 °C 13.1 °C 1010 hPa SW 2.1 km/h 8 km/h 86.9% 0.76 mm 0 W/m2
02:19 15.2 °C 13 °C 1010 hPa SW 3.4 km/h 8 km/h 87.1% 0.76 mm 0 W/m2
02:24 15.1 °C 13.1 °C 1010 hPa SSW 3.7 km/h 8 km/h 88% 1.02 mm 0 W/m2
02:29 15.1 °C 13.1 °C 1009.7 hPa SW 4.5 km/h 11.3 km/h 88.1% 1.02 mm 0 W/m2
02:34 14.9 °C 13.2 °C 1009.7 hPa SSW 3.4 km/h 11.3 km/h 89% 1.27 mm 0 W/m2
02:39 14.9 °C 13.1 °C 1009.7 hPa SW 3.7 km/h 11.3 km/h 89% 1.27 mm 0 W/m2
02:44 14.9 °C 13.2 °C 1009.7 hPa SW 2.3 km/h 9.7 km/h 89.7% 1.02 mm 0 W/m2
02:49 14.9 °C 13.3 °C 1009.7 hPa SW 0.6 km/h 6.4 km/h 90% 1.27 mm 0 W/m2
02:54 14.9 °C 13.3 °C 1009.7 hPa SW 0.5 km/h 4.8 km/h 90% 1.02 mm 0 W/m2
02:59 14.9 °C 13.3 °C 1009.7 hPa SW 0.6 km/h 3.2 km/h 90% 1.02 mm 0 W/m2
03:04 14.9 °C 13.3 °C 1009.4 hPa SW 1 km/h 4.8 km/h 90.3% 1.02 mm 0 W/m2
03:09 14.9 °C 13.4 °C 1009.4 hPa WSW 0.8 km/h 4.8 km/h 91% 0.76 mm 0 W/m2
03:14 14.9 °C 13.4 °C 1009.4 hPa WSW 0.3 km/h 3.2 km/h 91% 0.76 mm 0 W/m2
03:19 14.9 °C 13.4 °C 1009.4 hPa Calm   1.6 km/h 91% 1.02 mm 0 W/m2
03:24 14.9 °C 13.4 °C 1009.4 hPa WSW 0.6 km/h 3.2 km/h 91% 1.02 mm 0 W/m2
03:29 14.9 °C 13.4 °C 1009 hPa Calm   3.2 km/h 91% 0.76 mm 0 W/m2
03:34 14.9 °C 13.4 °C 1009 hPa WSW 0.3 km/h 3.2 km/h 91% 0.51 mm 0 W/m2
03:39 14.9 °C 13.6 °C 1009 hPa Calm   3.2 km/h 91.8% 0.51 mm 0 W/m2
03:44 14.9 °C 13.6 °C 1009 hPa WSW 0.6 km/h 4.8 km/h 92% 1.02 mm 0 W/m2
03:49 15 °C 13.7 °C 1009 hPa WSW 2.3 km/h 4.8 km/h 92% 1.02 mm 0 W/m2
03:54 14.9 °C 13.7 °C 1009 hPa WSW 1.4 km/h 4.8 km/h 92% 1.02 mm 0 W/m2
03:59 14.9 °C 13.7 °C 1009 hPa WSW 1.6 km/h 4.8 km/h 92% 1.02 mm 0 W/m2
04:04 14.9 °C 13.7 °C 1009 hPa WSW 0.5 km/h 3.2 km/h 92% 1.02 mm 0 W/m2
04:09 15 °C 13.7 °C 1009 hPa WSW 1.3 km/h 4.8 km/h 92% 1.02 mm 0 W/m2
04:14 14.9 °C 13.7 °C 1009 hPa WSW 0.5 km/h 3.2 km/h 92.6% 1.02 mm 0 W/m2
04:19 14.9 °C 13.8 °C 1009 hPa WSW 1.1 km/h 4.8 km/h 93% 1.02 mm 0 W/m2
04:24 15 °C 13.9 °C 1009 hPa WSW 0.5 km/h 3.2 km/h 93% 1.02 mm 0 W/m2
04:29 15 °C 13.9 °C 1009 hPa WSW 0.8 km/h 4.8 km/h 93% 1.02 mm 0 W/m2
04:34 15 °C 13.9 °C 1009 hPa WSW 1.3 km/h 4.8 km/h 93% 1.02 mm 0 W/m2
04:39 15 °C 13.9 °C 1009 hPa WSW 0.5 km/h 4.8 km/h 93% 1.02 mm 0 W/m2
04:44 15 °C 13.9 °C 1008.7 hPa Calm   1.6 km/h 93% 0.51 mm 0 W/m2
04:49 15 °C 13.9 °C 1008.7 hPa Calm     93% 0.51 mm 0 W/m2
04:54 15.1 °C 14 °C 1008.7 hPa WSW 0.2 km/h 1.6 km/h 93% 0.51 mm 0 W/m2
04:59 15.1 °C 14 °C 1008.7 hPa Calm   1.6 km/h 93% 0.51 mm 0 W/m2
05:04 15.2 °C 14.1 °C 1008.7 hPa WSW 0.2 km/h 1.6 km/h 93% 0.51 mm 0 W/m2
05:09 15.2 °C 14.1 °C 1008.7 hPa WSW 0.2 km/h 1.6 km/h 93.3% 0.51 mm 0 W/m2
05:14 15.1 °C 14.1 °C 1008.7 hPa Calm   1.6 km/h 94% 0.51 mm 0 W/m2
05:19 15.1 °C 14.1 °C 1008.7 hPa WSW 0.2 km/h 1.6 km/h 94% 0.51 mm 0 W/m2
05:24 15.1 °C 14.1 °C 1008.7 hPa WSW 1.3 km/h 3.2 km/h 94% 0.25 mm 0 W/m2
05:29 15.2 °C 14.2 °C 1008.7 hPa WSW 3.1 km/h 8 km/h 94% 0.25 mm 0 W/m2
05:34 15.1 °C 14.1 °C 1008.7 hPa WSW 1.4 km/h 3.2 km/h 94% 0.25 mm 5 W/m2
05:39 15 °C 14 °C 1008.7 hPa WSW 3.2 km/h 6.4 km/h 94% 0.25 mm 7 W/m2
05:44 15 °C 14 °C 1008.7 hPa WSW 1.8 km/h 6.4 km/h 94% 0.25 mm 11 W/m2
05:49 15 °C 14 °C 1008.7 hPa WSW 1.1 km/h 6.4 km/h 94% 0.25 mm 14 W/m2
05:54 15 °C 14 °C 1008.7 hPa WSW 1.6 km/h 4.8 km/h 94% 0 mm 16 W/m2
05:59 15.1 °C 14.1 °C 1008.7 hPa Calm   4.8 km/h 94% 0 mm 16 W/m2
06:04 15 °C 14 °C 1008.7 hPa WSW 0.5 km/h 3.2 km/h 94% 0 mm 18 W/m2
06:09 15 °C 14 °C 1008.7 hPa WSW 2.1 km/h 4.8 km/h 94% 0 mm 21 W/m2
06:14 15 °C 14 °C 1008.7 hPa WSW 1 km/h 3.2 km/h 94% 0 mm 23 W/m2
06:19 15.1 °C 14.1 °C 1008.7 hPa WSW 0.5 km/h 3.2 km/h 94% 0 mm 23 W/m2
06:24 15.2 °C 14.2 °C 1008.7 hPa WSW 1.9 km/h 4.8 km/h 94% 0 mm 23 W/m2
06:29 15.2 °C 14.2 °C 1008.7 hPa WSW 1.6 km/h 4.8 km/h 94% 0 mm 32 W/m2
06:34 15.2 °C 14.2 °C 1008.7 hPa WSW 2.1 km/h 4.8 km/h 94% 0 mm 33 W/m2
06:39 15.2 °C 14.2 °C 1008.7 hPa WSW 1.9 km/h 4.8 km/h 94% 0 mm 37 W/m2
06:44 15.3 °C 14.3 °C 1008.7 hPa WSW 1.4 km/h 4.8 km/h 94% 0 mm 49 W/m2
06:49 15.3 °C 14.3 °C 1008.7 hPa Calm   3.2 km/h 94% 0 mm 58 W/m2
06:54 15.4 °C 14.4 °C 1008.7 hPa Calm   1.6 km/h 94% 0 mm 72 W/m2
06:59 15.4 °C 14.4 °C 1008.7 hPa Calm   1.6 km/h 94% 0 mm 72 W/m2
07:04 15.4 °C 14.4 °C 1008.7 hPa West 1.1 km/h 4.8 km/h 94.1% 0 mm 56 W/m2
07:09 15.6 °C 14.6 °C 1008.7 hPa West 3.7 km/h 9.7 km/h 94.2% 0 mm 54 W/m2
07:14 15.6 °C 14.6 °C 1008.7 hPa West 4.8 km/h 9.7 km/h 94.2% 0 mm 51 W/m2
07:19 15.6 °C 14.6 °C 1008.7 hPa West 4.2 km/h 9.7 km/h 94% 0 mm 53 W/m2
07:24 15.7 °C 14.7 °C 1009 hPa West 5.6 km/h 11.3 km/h 94% 0 mm 53 W/m2
07:29 15.7 °C 14.7 °C 1009 hPa West 5.6 km/h 11.3 km/h 94% 0 mm 56 W/m2
07:34 15.8 °C 14.8 °C 1009 hPa West 3.5 km/h 11.3 km/h 94% 0 mm 56 W/m2
07:39 15.8 °C 14.8 °C 1009 hPa WNW 5 km/h 12.9 km/h 94% 0 mm 65 W/m2
07:44 15.8 °C 14.8 °C 1009 hPa West 6.4 km/h 11.3 km/h 94% 0 mm 77 W/m2
07:49 15.8 °C 14.8 °C 1009 hPa West 4 km/h 9.7 km/h 94% 0 mm 97 W/m2
07:54 15.8 °C 14.8 °C 1009 hPa West 5 km/h 9.7 km/h 94% 0 mm 105 W/m2
07:59 15.8 °C 14.8 °C 1009 hPa West 4 km/h 9.7 km/h 94% 0 mm 107 W/m2
08:04 15.8 °C 14.8 °C 1009 hPa West 3.7 km/h 9.7 km/h 94% 0 mm 120 W/m2
08:09 15.8 °C 14.8 °C 1009 hPa West 6 km/h 11.3 km/h 94% 0 mm 121 W/m2
08:14 15.8 °C 14.8 °C 1009 hPa WNW 5.1 km/h 11.3 km/h 94% 0 mm 127 W/m2
08:19 15.8 °C 14.8 °C 1009 hPa WNW 6.1 km/h 12.9 km/h 94% 0 mm 134 W/m2
08:24 15.8 °C 14.8 °C 1009.4 hPa West 7.2 km/h 12.9 km/h 94% 0 mm 130 W/m2
08:29 15.8 °C 14.8 °C 1009.4 hPa West 6.6 km/h 12.9 km/h 94% 0 mm 125 W/m2
08:34 15.8 °C 14.8 °C 1009.4 hPa West 9 km/h 17.7 km/h 94% 0 mm 141 W/m2
08:39 15.7 °C 14.6 °C 1009.7 hPa West 10.1 km/h 17.7 km/h 93% 0 mm 156 W/m2
08:44 15.6 °C 14.4 °C 1009.7 hPa West 7.2 km/h 14.5 km/h 92.9% 0 mm 183 W/m2
08:49 15.6 °C 14.2 °C 1009.7 hPa West 8.5 km/h 16.1 km/h 92% 0 mm 190 W/m2
08:54 15.6 °C 14.2 °C 1009.7 hPa West 9 km/h 17.7 km/h 92% 0 mm 185 W/m2
08:59 15.6 °C 14 °C 1009.7 hPa West 12.6 km/h 20.9 km/h 90.8% 0 mm 216 W/m2
09:04 15.6 °C 13.9 °C 1009.7 hPa WNW 11.6 km/h 20.9 km/h 89.7% 0 mm 243 W/m2
09:09 15.6 °C 13.7 °C 1010 hPa WNW 13.4 km/h 22.5 km/h 88.5% 0 mm 236 W/m2
09:14 15.7 °C 13.7 °C 1009.7 hPa West 10.3 km/h 19.3 km/h 88% 0 mm 279 W/m2
09:19 15.7 °C 13.5 °C 1009.7 hPa West 10.1 km/h 20.9 km/h 87.1% 0 mm 230 W/m2
09:24 15.7 °C 13.3 °C 1010 hPa WNW 11.9 km/h 20.9 km/h 86% 0 mm 225 W/m2
09:29 15.5 °C 12.9 °C 1010 hPa West 12.9 km/h 27.4 km/h 84.6% 0 mm 246 W/m2
09:34 15.5 °C 12.8 °C 1010 hPa West 10 km/h 17.7 km/h 84% 0 mm 290 W/m2
09:39 15.7 °C 13 °C 1010 hPa West 9.3 km/h 20.9 km/h 84% 0 mm 329 W/m2
09:44 15.7 °C 12.8 °C 1010 hPa West 13 km/h 24.1 km/h 83% 0 mm 369 W/m2
09:49 15.9 °C 12.9 °C 1010 hPa West 6.6 km/h 22.5 km/h 82.7% 0 mm 364 W/m2
09:54 16 °C 12.9 °C 1010 hPa West 11.1 km/h 19.3 km/h 82.1% 0 mm 385 W/m2
09:59 15.9 °C 12.6 °C 1010 hPa West 12.7 km/h 22.5 km/h 80.3% 0 mm 357 W/m2
10:04 15.9 °C 12.3 °C 1010 hPa West 13 km/h 24.1 km/h 79% 0 mm 378 W/m2
10:09 15.9 °C 12.3 °C 1010 hPa WNW 13.7 km/h 25.7 km/h 78.8% 0 mm 346 W/m2
10:14 15.9 °C 12.2 °C 1010.4 hPa West 11.4 km/h 22.5 km/h 78.8% 0 mm 281 W/m2
10:19 15.9 °C 12.3 °C 1010 hPa West 11.1 km/h 17.7 km/h 79% 0 mm 288 W/m2
10:24 15.9 °C 12.3 °C 1010.4 hPa West 13.5 km/h 22.5 km/h 79% 0 mm 323 W/m2
10:29 15.9 °C 12.3 °C 1010.4 hPa WNW 13.5 km/h 24.1 km/h 79% 0 mm 339 W/m2
10:34 15.9 °C 12.3 °C 1010.4 hPa West 12.4 km/h 20.9 km/h 79% 0 mm 320 W/m2
10:39 15.9 °C 12.3 °C 1010.4 hPa West 12.6 km/h 22.5 km/h 79% 0 mm 323 W/m2
10:44 16 °C 12.4 °C 1010.4 hPa WNW 8.2 km/h 17.7 km/h 79% 0 mm 306 W/m2
10:49 16.1 °C 12.5 °C 1010.4 hPa WNW 14.3 km/h 22.5 km/h 79% 0 mm 301 W/m2
10:54 16.1 °C 12.4 °C 1010.4 hPa WNW 10.3 km/h 19.3 km/h 79% 0 mm 381 W/m2
10:59 16.3 °C 12.7 °C 1010.4 hPa West 6.8 km/h 16.1 km/h 79% 0 mm 381 W/m2
11:04 16.4 °C 12.7 °C 1010.4 hPa West 10.1 km/h 19.3 km/h 78.3% 0 mm 396 W/m2
11:09 16.4 °C 12.5 °C 1010.4 hPa WNW 9.7 km/h 19.3 km/h 77.3% 0 mm 294 W/m2
11:14 16.4 °C 12.4 °C 1010.7 hPa WNW 10.1 km/h 19.3 km/h 77% 0 mm 258 W/m2
11:19 16.4 °C 12.4 °C 1010.7 hPa WNW 9.7 km/h 17.7 km/h 77% 0 mm 341 W/m2
11:24 16.4 °C 12.4 °C 1010.7 hPa WNW 10 km/h 19.3 km/h 76.8% 0 mm 390 W/m2
11:29 16.8 °C 12.6 °C 1010.7 hPa WNW 8 km/h 16.1 km/h 76.5% 0 mm 371 W/m2
11:34 16.9 °C 12.6 °C 1010.7 hPa West 8.9 km/h 17.7 km/h 75.6% 0 mm 548 W/m2
11:39 17.1 °C 12.5 °C 1010.7 hPa WNW 12.9 km/h 22.5 km/h 74.9% 0 mm 515 W/m2
11:44 17.1 °C 12.2 °C 1010.7 hPa WNW 11.1 km/h 22.5 km/h 73.1% 0 mm 464 W/m2
11:49 17.2 °C 12.2 °C 1010.7 hPa WNW 9.5 km/h 19.3 km/h 72.4% 0 mm 410 W/m2
11:54 17.3 °C 12 °C 1010.7 hPa WNW 8.7 km/h 19.3 km/h 71.3% 0 mm 410 W/m2
11:59 17.4 °C 12.3 °C 1010.7 hPa WNW 9.7 km/h 19.3 km/h 72% 0 mm 376 W/m2
12:04 17.4 °C 12.1 °C 1010.7 hPa West 12.7 km/h 22.5 km/h 70.8% 0 mm 387 W/m2
12:09 17.5 °C 11.7 °C 1010.7 hPa WNW 12.2 km/h 24.1 km/h 68.8% 0 mm 490 W/m2
12:14 17.5 °C 11.3 °C 1010.7 hPa WNW 12.6 km/h 24.1 km/h 67% 0 mm 499 W/m2
12:19 17.8 °C 11.7 °C 1010.7 hPa WNW 10 km/h 22.5 km/h 67.2% 0 mm 508 W/m2
12:24 17.8 °C 11.3 °C 1010.7 hPa West 15.4 km/h 29 km/h 65.5% 0 mm 461 W/m2
12:29 17.9 °C 11.2 °C 1010.7 hPa WNW 10.8 km/h 29 km/h 65% 0 mm 603 W/m2
12:34 18.2 °C 11.4 °C 1010.7 hPa WNW 13.5 km/h 25.7 km/h 64.8% 0 mm 603 W/m2
12:39 18.2 °C 11.9 °C 1010.7 hPa WNW 10.5 km/h 19.3 km/h 66.4% 0 mm 603 W/m2
12:44 18.4 °C 12.1 °C 1010.7 hPa West 13.4 km/h 24.1 km/h 66.7% 0 mm 1188 W/m2
12:49 18.3 °C 11.5 °C 1010.7 hPa WNW 12.4 km/h 22.5 km/h 64.3% 0 mm 1188 W/m2
12:54 18.4 °C 11.6 °C 1010.7 hPa WNW 12.6 km/h 24.1 km/h 64.7% 0 mm 452 W/m2
12:59 18.4 °C 12.2 °C 1010.7 hPa West 11.4 km/h 22.5 km/h 66.7% 0 mm 473 W/m2
13:04 18.4 °C 12.4 °C 1010.7 hPa West 11.6 km/h 22.5 km/h 68.1% 0 mm 411 W/m2
13:09 18.4 °C 12.4 °C 1010.7 hPa West 13.5 km/h 20.9 km/h 68.2% 0 mm 411 W/m2
13:14 18.3 °C 12.6 °C 1010.7 hPa West 10.9 km/h 20.9 km/h 69.4% 0 mm 454 W/m2
13:19 18.6 °C 12.8 °C 1010.7 hPa West 9.2 km/h 20.9 km/h 69.2% 0 mm 501 W/m2
13:24 18.9 °C 13.1 °C 1010.7 hPa West 11.3 km/h 22.5 km/h 68.6% 0 mm 921 W/m2
13:29 18.9 °C 12.9 °C 1010.7 hPa West 13.5 km/h 22.5 km/h 68% 0 mm 933 W/m2
13:34 19 °C 12.7 °C 1010.7 hPa WNW 16.1 km/h 25.7 km/h 66.7% 0 mm 898 W/m2
13:39 18.9 °C 12.9 °C 1010.7 hPa West 13.2 km/h 25.7 km/h 68% 0 mm 983 W/m2
13:44 19.2 °C 12.8 °C 1010.7 hPa WNW 12.1 km/h 25.7 km/h 67% 0 mm 935 W/m2
13:49 19.4 °C 13.1 °C 1010.7 hPa WNW 11.6 km/h 24.1 km/h 67.1% 0 mm 939 W/m2
13:54 19.6 °C 13.2 °C 1010.7 hPa WSW 12.6 km/h 24.1 km/h 67% 0 mm 947 W/m2
13:59 19.8 °C 13.3 °C 1010.7 hPa WSW 12.9 km/h 29 km/h 66.5% 0 mm 944 W/m2
14:04 19.3 °C 13.2 °C 1011.1 hPa West 12.1 km/h 29 km/h 67.6% 0 mm 904 W/m2
14:09 19.4 °C 13.2 °C 1010.7 hPa West 15 km/h 24.1 km/h 67.3% 0 mm 904 W/m2
14:14 19.4 °C 13.1 °C 1010.7 hPa WSW 16.4 km/h 29 km/h 66.7% 0 mm 410 W/m2
14:19 19.5 °C 13.1 °C 1011.1 hPa WNW 16.4 km/h 29 km/h 66.3% 0 mm 923 W/m2
14:24 19.9 °C 13.2 °C 1011.1 hPa West 10.9 km/h 24.1 km/h 65.3% 0 mm 933 W/m2
14:29 20.3 °C 13.1 °C 1011.1 hPa West 12.6 km/h 22.5 km/h 63.3% 0 mm 937 W/m2
14:34 20.1 °C 12.6 °C 1011.1 hPa West 14.5 km/h 25.7 km/h 62.1% 0 mm 940 W/m2
14:39 20 °C 12.7 °C 1011.1 hPa West 12.1 km/h 22.5 km/h 63.1% 0 mm 940 W/m2
14:44 19.9 °C 12.7 °C 1011.1 hPa West 14 km/h 25.7 km/h 63% 0 mm 944 W/m2
14:49 20.1 °C 12.9 °C 1011.1 hPa West 14.3 km/h 27.4 km/h 63.2% 0 mm 951 W/m2
14:54 20.4 °C 13.2 °C 1011.1 hPa West 11.3 km/h 20.9 km/h 63% 0 mm 951 W/m2
14:59 20.4 °C 13.2 °C 1011.1 hPa West 13.8 km/h 27.4 km/h 63.2% 0 mm 979 W/m2
15:04 20.2 °C 12.9 °C 1011.1 hPa West 17.9 km/h 27.4 km/h 63.1% 0 mm 979 W/m2
15:09 19.9 °C 12.9 °C 1011.1 hPa West 16.4 km/h 32.2 km/h 64.2% 0 mm 889 W/m2
15:14 19.9 °C 13.1 °C 1010.7 hPa West 17.9 km/h 32.2 km/h 64.3% 0 mm 886 W/m2
15:19 20.1 °C 13.2 °C 1011.1 hPa WNW 12.9 km/h 30.6 km/h 64.5% 0 mm 907 W/m2
15:24 20.4 °C 13.4 °C 1011.1 hPa West 12.2 km/h 24.1 km/h 64.2% 0 mm 907 W/m2
15:29 20.3 °C 13.1 °C 1011.1 hPa WNW 18.8 km/h 27.4 km/h 63.1% 0 mm 860 W/m2
15:34 19.9 °C 13.2 °C 1011.1 hPa WNW 11.9 km/h 27.4 km/h 64.9% 0 mm 860 W/m2
15:39 20.2 °C 13.2 °C 1011.1 hPa WNW 11.7 km/h 25.7 km/h 64.1% 0 mm 824 W/m2
15:44 20.3 °C 13.3 °C 1011.1 hPa West 12.2 km/h 22.5 km/h 64% 0 mm 812 W/m2
15:49 20.3 °C 13.1 °C 1011.1 hPa West 16.3 km/h 25.7 km/h 63.1% 0 mm 798 W/m2
15:54 20.1 °C 12.8 °C 1010.7 hPa WSW 13.8 km/h 20.9 km/h 62.9% 0 mm 759 W/m2
15:59 20.3 °C 12.9 °C 1011.1 hPa WSW 15.8 km/h 27.4 km/h 62.5% 0 mm 733 W/m2
16:04 20.3 °C 13 °C 1011.1 hPa WNW 10.3 km/h 20.9 km/h 62.9% 0 mm 735 W/m2
16:09 20.6 °C 13.2 °C 1011.1 hPa West 15.3 km/h 29 km/h 62.7% 0 mm 733 W/m2
16:14 20.4 °C 13 °C 1011.1 hPa West 17.2 km/h 32.2 km/h 62.3% 0 mm 744 W/m2
16:19 20.4 °C 13.1 °C 1011.1 hPa West 20.8 km/h 33.8 km/h 62.8% 0 mm 738 W/m2
16:24 20.2 °C 12.9 °C 1011.1 hPa West 20.1 km/h 30.6 km/h 62.7% 0 mm 714 W/m2
16:29 20 °C 13 °C 1011.1 hPa West 14 km/h 30.6 km/h 64% 0 mm 714 W/m2
16:34 20 °C 12.9 °C 1011.1 hPa WNW 15.8 km/h 29 km/h 63.7% 0 mm 670 W/m2
16:39 20 °C 12.5 °C 1011.1 hPa West 16.7 km/h 27.4 km/h 62.1% 0 mm 670 W/m2
16:44 20.1 °C 12.3 °C 1011.1 hPa West 16.4 km/h 29 km/h 61.1% 0 mm 596 W/m2
16:49 19.9 °C 12.2 °C 1011.1 hPa West 16.4 km/h 30.6 km/h 60.8% 0 mm 587 W/m2
16:54 19.8 °C 12.4 °C 1011.1 hPa West 14.6 km/h 30.6 km/h 62.2% 0 mm 601 W/m2
16:59 19.7 °C 12.2 °C 1011.1 hPa West 15.3 km/h 32.2 km/h 61.7% 0 mm 613 W/m2
17:04 19.8 °C 12.2 °C 1011.4 hPa West 18 km/h 29 km/h 61.3% 0 mm 547 W/m2
17:09 19.6 °C 12.1 °C 1011.4 hPa West 20.9 km/h 32.2 km/h 62% 0 mm 503 W/m2
17:14 19.5 °C 11.8 °C 1011.4 hPa WNW 15 km/h 32.2 km/h 61.2% 0 mm 612 W/m2
17:19 19.7 °C 11.9 °C 1011.4 hPa WNW 15.3 km/h 27.4 km/h 60.8% 0 mm 561 W/m2
17:24 19.7 °C 12 °C 1011.4 hPa WNW 16.1 km/h 27.4 km/h 60.9% 0 mm 554 W/m2
17:29 19.8 °C 11.9 °C 1011.4 hPa West 14.5 km/h 25.7 km/h 60.4% 0 mm 547 W/m2
17:34 19.8 °C 11.7 °C 1011.4 hPa West 14.2 km/h 27.4 km/h 59.5% 0 mm 526 W/m2
17:39 19.8 °C 11.7 °C 1011.4 hPa WNW 14.8 km/h 24.1 km/h 59.3% 0 mm 469 W/m2
17:44 19.8 °C 11.8 °C 1011.4 hPa WNW 13.5 km/h 25.7 km/h 60% 0 mm 485 W/m2
17:49 19.9 °C 12.1 °C 1011.4 hPa WNW 10.6 km/h 22.5 km/h 60.6% 0 mm 494 W/m2
17:54 20.1 °C 12.2 °C 1011.4 hPa West 12.9 km/h 22.5 km/h 60.5% 0 mm 476 W/m2
17:59 19.8 °C 11.8 °C 1011.4 hPa West 14.3 km/h 24.1 km/h 60% 0 mm 466 W/m2
18:04 19.7 °C 11.8 °C 1011.4 hPa West 12.2 km/h 20.9 km/h 60.1% 0 mm 353 W/m2
18:09 19.6 °C 11.8 °C 1011.4 hPa West 13.2 km/h 22.5 km/h 60.7% 0 mm 454 W/m2
18:14 19.8 °C 11.9 °C 1011.4 hPa West 11.7 km/h 20.9 km/h 60.3% 0 mm 457 W/m2
18:19 19.7 °C 11.3 °C 1011.4 hPa West 12.9 km/h 24.1 km/h 58.3% 0 mm 367 W/m2
18:24 19.7 °C 11.4 °C 1011.4 hPa WNW 11.1 km/h 24.1 km/h 58.7% 0 mm 339 W/m2
18:29 19.5 °C 11.2 °C 1011.4 hPa West 14.5 km/h 25.7 km/h 58.7% 0 mm 309 W/m2
18:34 19.4 °C 11 °C 1011.4 hPa West 14.8 km/h 27.4 km/h 58.3% 0 mm 292 W/m2
18:39 19.3 °C 10.7 °C 1011.7 hPa West 13.5 km/h 27.4 km/h 57.5% 0 mm 323 W/m2
18:44 19.2 °C 10.5 °C 1011.7 hPa WNW 14.3 km/h 27.4 km/h 56.8% 0 mm 323 W/m2
18:49 19.2 °C 10.4 °C 1011.7 hPa WNW 12.2 km/h 25.7 km/h 57.2% 0 mm 346 W/m2
18:54 19.3 °C 10.7 °C 1011.7 hPa WNW 11.9 km/h 22.5 km/h 57.6% 0 mm 336 W/m2
18:59 19.3 °C 10.8 °C 1011.7 hPa WSW 14.2 km/h 25.7 km/h 57.5% 0 mm 320 W/m2
19:04 19.4 °C 10.9 °C 1011.7 hPa WNW 11.1 km/h 25.7 km/h 58% 0 mm 288 W/m2
19:09 19.3 °C 11.1 °C 1011.7 hPa WNW 10.3 km/h 25.7 km/h 59.1% 0 mm 292 W/m2
19:14 19.2 °C 11.3 °C 1011.7 hPa West 9.8 km/h 20.9 km/h 60.3% 0 mm 183 W/m2
19:19 19 °C 11.6 °C 1011.7 hPa West 11.4 km/h 19.3 km/h 62% 0 mm 227 W/m2
19:24 18.8 °C 11.7 °C 1011.7 hPa WNW 13 km/h 20.9 km/h 62.9% 0 mm 174 W/m2
19:29 18.6 °C 11.8 °C 1011.7 hPa West 9.8 km/h 24.1 km/h 64.6% 0 mm 95 W/m2
19:34 18.3 °C 11.8 °C 1011.7 hPa West 6.9 km/h 24.1 km/h 66% 0 mm 84 W/m2
19:39 18.2 °C 12 °C 1011.7 hPa WNW 11.3 km/h 20.9 km/h 66.9% 0 mm 97 W/m2
19:44 18.1 °C 12 °C 1011.7 hPa WNW 8.9 km/h 20.9 km/h 67.5% 0 mm 121 W/m2
19:49 18 °C 12 °C 1011.7 hPa WNW 7.9 km/h 19.3 km/h 67.9% 0 mm 111 W/m2
19:54 18 °C 11.9 °C 1011.7 hPa West 8.5 km/h 16.1 km/h 67.9% 0 mm 118 W/m2
19:59 17.9 °C 11.9 °C 1011.7 hPa WNW 10.3 km/h 20.9 km/h 67.8% 0 mm 105 W/m2
20:04 17.9 °C 11.9 °C 1011.7 hPa West 7.7 km/h 16.1 km/h 68% 0 mm 104 W/m2
20:09 17.8 °C 11.8 °C 1011.7 hPa West 9.8 km/h 19.3 km/h 68% 0 mm 118 W/m2
20:14 17.9 °C 11.8 °C 1011.7 hPa WNW 9.3 km/h 17.7 km/h 67.3% 0 mm 109 W/m2
20:19 17.8 °C 11.6 °C 1012.1 hPa West 8.2 km/h 20.9 km/h 67% 0 mm 90 W/m2
20:24 17.7 °C 11.5 °C 1012.1 hPa West 9.5 km/h 20.9 km/h 67.2% 0 mm 62 W/m2
20:29 17.5 °C 11.3 °C 1011.7 hPa West 11.7 km/h 19.3 km/h 67% 0 mm 60 W/m2
20:34 17.3 °C 11.2 °C 1012.1 hPa West 8.9 km/h 19.3 km/h 67% 0 mm 44 W/m2
20:39 17.3 °C 11.2 °C 1012.1 hPa West 9 km/h 16.1 km/h 67.8% 0 mm 32 W/m2
20:44 17.2 °C 11.3 °C 1012.1 hPa WNW 10.8 km/h 17.7 km/h 68.6% 0 mm 25 W/m2
20:49 16.9 °C 11.3 °C 1012.1 hPa West 6.9 km/h 17.7 km/h 69% 0 mm 19 W/m2
20:54 16.8 °C 11.3 °C 1012.1 hPa WNW 9.7 km/h 16.1 km/h 69.7% 0 mm 18 W/m2
20:59 16.7 °C 11.3 °C 1012.1 hPa West 7.4 km/h 16.1 km/h 70.7% 0 mm 16 W/m2
21:04 16.4 °C 11.2 °C 1012.1 hPa West 5.8 km/h 11.3 km/h 71% 0 mm 12 W/m2
21:09 16.3 °C 11.2 °C 1012.1 hPa West 5.8 km/h 11.3 km/h 71.8% 0 mm 9 W/m2
21:14 16.3 °C 11.3 °C 1012.1 hPa West 6.8 km/h 11.3 km/h 72.5% 0 mm 5 W/m2
21:19 16.2 °C 11.4 °C 1012.1 hPa West 6 km/h 12.9 km/h 73% 0 mm 0 W/m2
21:24 16.2 °C 11.3 °C 1012.1 hPa West 5.8 km/h 9.7 km/h 73% 0 mm 0 W/m2
21:29 16 °C 11.3 °C 1012.4 hPa West 5.6 km/h 9.7 km/h 73.8% 0 mm 0 W/m2
21:34 15.9 °C 11.3 °C 1012.4 hPa West 5 km/h 9.7 km/h 74% 0 mm 0 W/m2
21:39 15.8 °C 11.2 °C 1012.4 hPa West 2.1 km/h 8 km/h 74% 0 mm 0 W/m2
21:44 15.7 °C 11.2 °C 1012.4 hPa West 3.9 km/h 8 km/h 74% 0 mm 0 W/m2
21:49 15.7 °C 11.1 °C 1012.4 hPa West 3.2 km/h 9.7 km/h 74.1% 0 mm 0 W/m2
21:54 15.5 °C 11.1 °C 1012.4 hPa WSW 1.4 km/h 8 km/h 75% 0 mm 0 W/m2
21:59 15.4 °C 11.1 °C 1012.8 hPa WSW 2.4 km/h 8 km/h 75% 0 mm 0 W/m2
22:04 15.3 °C 10.9 °C 1012.8 hPa WSW 1.8 km/h 6.4 km/h 75% 0 mm 0 W/m2
22:09 15.2 °C 10.8 °C 1012.8 hPa WSW 2.6 km/h 6.4 km/h 75.2% 0 mm 0 W/m2
22:14 15.1 °C 10.9 °C 1012.8 hPa WSW 2.4 km/h 6.4 km/h 76% 0 mm 0 W/m2
22:19 14.9 °C 10.8 °C 1012.8 hPa WSW 2.9 km/h 6.4 km/h 76.1% 0 mm 0 W/m2
22:24 14.8 °C 10.8 °C 1012.8 hPa WNW 5 km/h 9.7 km/h 77.2% 0 mm 0 W/m2
22:29 14.7 °C 10.9 °C 1012.8 hPa NW 5 km/h 8 km/h 78% 0 mm 0 W/m2
22:34 14.7 °C 11.1 °C 1012.8 hPa NW 4.2 km/h 9.7 km/h 79% 0 mm 0 W/m2
22:39 14.6 °C 11.1 °C 1012.8 hPa NW 3.2 km/h 8 km/h 79.6% 0 mm 0 W/m2
22:44 14.6 °C 11.2 °C 1012.8 hPa NW 1.4 km/h 6.4 km/h 80% 0 mm 0 W/m2
22:49 14.5 °C 11.1 °C 1012.8 hPa NW 2.9 km/h 8 km/h 80% 0 mm 0 W/m2
22:54 14.4 °C 11.2 °C 1012.8 hPa NW 3.1 km/h 6.4 km/h 80.6% 0 mm 0 W/m2
22:59 14.4 °C 11.2 °C 1012.8 hPa NW 2.6 km/h 6.4 km/h 81% 0 mm 0 W/m2
23:04 14.4 °C 11.3 °C 1012.8 hPa NW 0.3 km/h 6.4 km/h 81.2% 0 mm 0 W/m2
23:09 14.4 °C 11.4 °C 1012.8 hPa NW 0.3 km/h 1.6 km/h 82% 0 mm 0 W/m2
23:14 14.3 °C 11.3 °C 1012.8 hPa Calm   1.6 km/h 82% 0 mm 0 W/m2
23:19 14.3 °C 11.3 °C 1012.8 hPa NW 0.3 km/h 1.6 km/h 82% 0 mm 0 W/m2
23:24 14.3 °C 11.3 °C 1012.8 hPa NW 1.4 km/h 4.8 km/h 82% 0 mm 0 W/m2
23:29 14.3 °C 11.3 °C 1012.8 hPa NW 0.2 km/h 3.2 km/h 82% 0 mm 0 W/m2
23:34 14.3 °C 11.3 °C 1012.8 hPa Calm     82% 0 mm 0 W/m2
23:39 14.2 °C 11.2 °C 1012.8 hPa Calm     82% 0 mm 0 W/m2
23:44 14.2 °C 11.2 °C 1012.8 hPa Calm     82% 0 mm 0 W/m2
23:49 14.1 °C 11.2 °C 1012.8 hPa NW 0.3 km/h 1.6 km/h 82.5% 0 mm 0 W/m2
23:54 14 °C 11.2 °C 1012.8 hPa Calm   1.6 km/h 83% 0 mm 0 W/m2
23:59 13.9 °C 11.1 °C 1012.8 hPa Calm     83% 0 mm 0 W/m2
Bath Spa Weather
Compliments of Weather Underground - 2 mb